メインページ
METAR-TAF:

METAR-TAF

空港 :

High Level, アルバータ州, カナダ

緯度: 58-37N, 経度: 117-10W, 海抜: 338m

現時点の気象観測

当レポートは54分前の02:00(UTC)に作成
の風 5kt、南/南東から西/南西の間で変化する
気温 10°C
湿度 37%
気圧 1006 hPa
視程: 24.1km
高度26000ftの千切れ雲あり

METAR: CYOJ 200200Z 19005KT 160V240 15SM BKN260 10/M04 A2971 RMK CI5 SLP078

時間: 20:54 (02:54 UTC)

予報

当レポートは2時間16分前の00:38(UTC)に作成
予報は20日の 01時(UTC)から 20日の 13時(UTC)まで有効
の風 10kt
視程: 10km
高度26000ftの千切れ雲あり
20日の 0300時(UTC)から
の風 5kt
視程: 10km
高度8000ftの雲は散在している

TAF: CYOJ 200038Z 2001/2013 17010KT P6SM BKN260 FM200300 18005KT P6SM SCT080 RMK NXT FCST BY 200700Z

4,000以上の空港の気象観測と天気予報(METAR報とTAF報)

利用可能な観測所は地図上に黄色い丸と赤い丸で示す。

丸の上にカーソルを重ねると観測所名を参照できる。

次にクリックすると気象観測と天気予報を参照できる。

マップの切り替え:黒色「×」印の緑ボタンをクリックして拡大、「-」印の緑ボタンをクリックして縮小、緑色の三角印をクリックして隣りの地図に切り替え


METAR-TAF: